Data for 07/19/2006

Time Sea-Level Adjusted Pressure Absolute Pressure Temperature Relative Humidity Dew Point   
(mb) (inHg) (mb) (inHg) (C) (F) (%) (C) (F)
00:05 1019 30.09 848 25.04 20.1 68.1 29 1.8 35.3
00:10 1019 30.09 848 25.04 20.3 68.5 28 1.5 34.7
00:15 1019 30.09 848 25.04 20.3 68.6 28 1.5 34.7
00:20 1019 30.09 848 25.04 20.3 68.6 28 1.5 34.8
00:25 1019 30.09 848 25.04 20.1 68.2 29 1.8 35.2
00:30 1019 30.09 848 25.04 20.1 68.2 28 1.4 34.5
00:35 1019 30.09 848 25.04 20.1 68.2 29 1.7 35.1
00:40 1019 30.09 849 25.07 19.6 67.3 31 1.9 35.5
00:45 1019 30.09 849 25.07 19.4 66.9 29 1.2 34.2
00:50 1019 30.09 849 25.07 19.5 67 30 1.5 34.7
00:55 1019 30.09 849 25.07 19.4 66.9 30 1.5 34.7
01:00 1020 30.12 849 25.07 19.4 66.9 29 1.3 34.3
01:05 1020 30.12 849 25.07 19.3 66.7 30 1.4 34.5
01:10 1020 30.12 849 25.07 19.2 66.6 30 1.1 34.1
01:15 1020 30.12 849 25.07 19.1 66.3 30 1.1 34
01:20 1020 30.12 849 25.07 19.1 66.5 29 1.1 33.9
01:25 1020 30.12 849 25.07 19.1 66.3 30 1.1 34
01:30 1020 30.12 849 25.07 19.1 66.3 29 0.9 33.7
01:35 1020 30.12 849 25.07 19.1 66.4 29 1 33.9
01:40 1020 30.12 849 25.07 18.8 65.9 30 1.1 33.9
01:45 1020 30.12 849 25.07 18.9 66 30 1.1 34
01:50 1020 30.12 849 25.07 18.8 65.8 31 1.6 34.9
01:55 1020 30.12 849 25.07 18.5 65.2 32 1.6 34.9
02:00 1020 30.12 849 25.07 18.3 64.9 34 2.2 36
02:05 1020 30.12 849 25.07 18 64.4 32 1.3 34.3
02:10 1020 30.12 849 25.07 18.2 64.8 32 1.2 34.1
02:15 1020 30.12 849 25.07 18.2 64.8 32 1.4 34.4
02:20 1020 30.12 849 25.07 18.1 64.5 32 1.4 34.6
02:25 1020 30.12 849 25.07 17.7 63.9 33 1.6 34.8
02:30 1020 30.12 849 25.07 17.6 63.6 33 1.1 33.9
02:35 1020 30.12 849 25.07 17.6 63.6 33 1.2 34.2
02:40 1020 30.12 849 25.07 17.3 63.2 33 1 33.9
02:45 1020 30.12 849 25.07 17.1 62.8 34 1.1 34
02:50 1020 30.12 850 25.1 16.9 62.3 42 3.9 39
02:55 1020 30.12 850 25.1 16.4 61.6 37 2 35.5
03:00 1021 30.15 850 25.1 16.4 61.5 38 2.2 35.9
03:05 1021 30.15 850 25.1 16.4 61.4 40 2.9 37.2
03:10 1021 30.15 850 25.1 16.5 61.7 36 1.4 34.5
03:15 1021 30.15 850 25.1 16.5 61.7 37 1.8 35.3
03:20 1021 30.15 850 25.1 16.4 61.5 37 1.9 35.4
03:25 1021 30.15 850 25.1 16.1 61 44 4.1 39.4
03:30 1021 30.15 850 25.1 16.1 61 38 2 35.5
03:35 1021 30.15 850 25.1 15.6 60.1 40 2.3 36.1
03:40 1021 30.15 850 25.1 15.5 59.8 43 3 37.4
03:45 1021 30.15 850 25.1 15.7 60.2 39 1.9 35.5
03:50 1021 30.15 850 25.1 15.3 59.6 41 2.3 36.1
03:55 1021 30.15 850 25.1 15.3 59.5 36 0.5 32.9
04:00 1021 30.15 850 25.1 15.8 60.5 34 0.2 32.3
04:05 1021 30.15 850 25.1 16 60.7 35 0.6 33.2
04:10 1021 30.15 850 25.1 15.7 60.2 38 1.7 35
04:15 1021 30.15 850 25.1 15.3 59.5 40 1.9 35.4
04:20 1021 30.15 850 25.1 15 59 41 2.1 35.7
04:25 1021 30.15 850 25.1 14.9 58.7 43 2.4 36.3
04:30 1021 30.15 850 25.1 14.7 58.5 42 2.1 35.7
04:35 1021 30.15 850 25.1 14.7 58.4 45 2.9 37.2
04:40 1021 30.15 850 25.1 14.1 57.3 48 3.2 37.7
04:45 1021 30.15 850 25.1 14.1 57.4 46 2.7 36.9
04:50 1021 30.15 850 25.1 13.8 56.9 47 2.7 36.9
04:55 1021 30.15 850 25.1 13.9 57.1 45 2.3 36.2
05:00 1021 30.15 850 25.1 14.2 57.5 43 1.8 35.2
05:05 1021 30.15 850 25.1 14.7 58.4 40 1.4 34.6
05:10 1021 30.15 851 25.13 15.1 59.2 38 0.9 33.5
05:15 1021 30.15 851 25.13 15.2 59.4 35 0 32.1
05:20 1021 30.15 851 25.13 15.5 59.9 41 2.3 36.2
05:25 1021 30.15 851 25.13 15.4 59.8 35 0.2 32.3
05:30 1021 30.15 851 25.13 15.2 59.3 38 0.9 33.7
05:35 1021 30.15 851 25.13 14.7 58.4 39 0.9 33.7
05:40 1022 30.18 851 25.13 14.6 58.3 39 0.8 33.5
05:45 1022 30.18 851 25.13 14.5 58.1 40 1 33.8
05:50 1022 30.18 851 25.13 14.3 57.7 40 1 33.8
05:55 1022 30.18 851 25.13 13.9 57 41 1.1 34
06:00 1022 30.18 851 25.13 13.9 56.9 41 1 33.8
06:05 1022 30.18 851 25.13 14.5 58.1 36 -0.2 31.7
06:10 1022 30.18 851 25.13 14.8 58.6 36 -0 32
06:15 1022 30.18 851 25.13 14.8 58.6 35 -0.3 31.5
06:20 1022 30.18 851 25.13 14.8 58.6 36 -0.2 31.7
06:25 1022 30.18 851 25.13 14.7 58.4 37 0.3 32.5
06:30 1022 30.18 851 25.13 14.6 58.3 36 -0.2 31.6
06:35 1022 30.18 851 25.13 14.8 58.6 35 -0.3 31.4
06:40 1022 30.18 851 25.13 15 59 34 -0.7 30.7
06:45 1022 30.18 851 25.13 15.3 59.5 34 -0.5 31
06:50 1022 30.18 851 25.13 15.5 59.8 35 0.1 32.1
06:55 1022 30.18 851 25.13 15.3 59.5 36 0.2 32.4
07:00 1022 30.18 851 25.13 15.2 59.3 36 0.4 32.7
07:05 1022 30.18 851 25.13 15.4 59.6 35 0.2 32.4
07:10 1022 30.18 851 25.13 15.5 59.9 35 0.4 32.7
07:15 1022 30.18 851 25.13 15.6 60 39 1.7 35.1
07:20 1022 30.18 851 25.13 15.8 60.4 34 -0 31.9
07:25 1022 30.18 851 25.13 16 60.7 39 2 35.7
07:30 1022 30.18 851 25.13 15.9 60.5 42 3 37.4
07:35 1022 30.18 851 25.13 16.1 60.9 40 2.6 36.7
07:40 1022 30.18 851 25.13 16.3 61.4 43 3.9 39
07:45 1022 30.18 851 25.13 16.7 62 42 3.9 39
07:50 1022 30.18 851 25.13 16.5 61.7 42 3.5 38.3
07:55 1022 30.18 852 25.16 16.8 62.2 45 4.8 40.6
08:00 1022 30.18 851 25.13 17.4 63.4 41 4.2 39.5
08:05 1022 30.18 852 25.16 17.6 63.7 42 4.6 40.2
08:10 1022 30.18 852 25.16 18 64.3 35 2.3 36.2
08:15 1022 30.18 852 25.16 18.2 64.7 37 3.5 38.3
08:20 1022 30.18 852 25.16 18.6 65.5 36 3.3 37.9
08:25 1022 30.18 852 25.16 18.5 65.4 32 1.8 35.2
08:30 1022 30.18 852 25.16 18.9 66 31 1.6 34.9
08:35 1022 30.18 852 25.16 19.4 66.9 29 1 33.8
08:40 1023 30.21 852 25.16 20 68 28 1 33.8
08:45 1023 30.21 852 25.16 20 68 28 1.2 34.2
08:50 1023 30.21 852 25.16 20.6 69.2 27 1.3 34.3
08:55 1023 30.21 852 25.16 21.4 70.5 25 0.8 33.4
09:00 1023 30.21 852 25.16 21.6 70.9 25 1 33.7
09:05 1023 30.21 852 25.16 21.1 70 27 1.5 34.6
09:10 1023 30.21 852 25.16 20.8 69.4 27 1.4 34.6
09:15 1023 30.21 852 25.16 21.2 70.2 27 1.5 34.8
09:20 1023 30.21 852 25.16 22.1 71.8 26 2 35.6
09:25 1023 30.21 852 25.16 22.3 72.1 25 1.7 35.1
09:30 1023 30.21 852 25.16 22.6 72.8 24 1 33.7
09:35 1023 30.21 852 25.16 23 73.4 23 1.2 34.1
09:40 1023 30.21 852 25.16 23.3 73.9 22 0.3 32.6
09:45 1023 30.21 852 25.16 23.5 74.3 23 1.1 34
09:50 1023 30.21 852 25.16 23.7 74.6 22 0.6 33.2
09:55 1023 30.21 852 25.16 22.6 72.7 23 0.4 32.7
10:00 1023 30.21 852 25.16 22.9 73.1 21 -0.3 31.5
10:05 1023 30.21 852 25.16 23 73.3 21 -0.3 31.4
10:10 1023 30.21 852 25.16 23.4 74.2 20 -0.8 30.5
10:15 1023 30.21 852 25.16 23.3 74 20 -0.4 31.3
10:20 1023 30.21 852 25.16 23.5 74.3 20 -0.7 30.7
10:25 1023 30.21 852 25.16 23.9 74.9 21 0.6 33
10:30 1023 30.21 852 25.16 24 75.2 20 -0.2 31.7
10:35 1023 30.21 852 25.16 24.5 76.2 16 -2.7 27.1
10:40 1023 30.21 852 25.16 24.5 76.1 19 -0.4 31.3
10:45 1023 30.21 852 25.16 25.1 77.1 18 -0.3 31.5
10:50 1023 30.21 852 25.16 25.2 77.3 19 -0.1 31.8
10:55 1023 30.21 852 25.16 25 77.1 18 -0.4 31.4
11:00 1023 30.21 852 25.16 24.2 75.6 18 -1.6 29.1
11:05 1023 30.21 852 25.16 25.6 78.1 15 -2.5 27.5
11:10 1023 30.21 852 25.16 25.8 78.5 16 -2 28.5
11:15 1023 30.21 852 25.16 26.2 79.1 16 -1.4 29.5
11:20 1023 30.21 852 25.16 26.2 79.2 17 -0.1 31.8
11:25 1023 30.21 852 25.16 26.5 79.7 18 0.6 33.1
11:30 1022 30.18 852 25.16 25.9 78.7 19 0.5 32.9
11:35 1022 30.18 852 25.16 25.8 78.4 20 1.4 34.5
11:40 1022 30.18 852 25.16 26.4 79.4 18 0.2 32.3
11:45 1022 30.18 852 25.16 26.9 80.4 17 -0.1 31.9
11:50 1022 30.18 852 25.16 26.9 80.4 16 -0.9 30.4
11:55 1022 30.18 852 25.16 26.9 80.3 16 -0.8 30.5
12:00 1022 30.18 852 25.16 27.2 81 18 0.8 33.4
12:05 1022 30.18 852 25.16 27.4 81.3 18 1.3 34.4
12:10 1022 30.18 852 25.16 27.2 81 18 0.8 33.5
12:15 1022 30.18 852 25.16 27.4 81.3 17 0.4 32.7
12:20 1022 30.18 851 25.13 27.2 81 17 0.5 32.9
12:25 1022 30.18 851 25.13 26.9 80.4 16 -0.9 30.4
12:30 1022 30.18 851 25.13 27.2 80.9 15 -1 30.2
12:35 1022 30.18 851 25.13 27.4 81.4 18 1.1 34.1
12:40 1022 30.18 851 25.13 26.2 79.2 19 0.7 33.2
12:45 1022 30.18 851 25.13 26.3 79.3 18 0.4 32.7
12:50 1022 30.18 851 25.13 26.6 80 21 2.6 36.7
12:55 1022 30.18 851 25.13 26.7 80 18 0.9 33.7
13:00 1022 30.18 851 25.13 27.4 81.4 18 1.2 34.2
13:05 1022 30.18 851 25.13 27.9 82.2 17 1.1 34
13:10 1022 30.18 851 25.13 27.5 81.5 15 -0.7 30.7
13:15 1022 30.18 851 25.13 27.4 81.4 17 0.6 33.1
13:20 1022 30.18 851 25.13 27.3 81.2 16 -0.1 31.8
13:25 1022 30.18 851 25.13 27.3 81.2 17 0.1 32.1
13:30 1022 30.18 851 25.13 28.3 83 15 -0.3 31.4
13:35 1022 30.18 851 25.13 28.1 82.5 16 -0.2 31.7
13:40 1022 30.18 851 25.13 28.3 83 15 -0.6 31
13:45 1022 30.18 851 25.13 29.1 84.3 14 -1 30.1
13:50 1022 30.18 851 25.13 28.9 84 16 0.6 33
13:55 1022 30.18 851 25.13 28.9 83.9 15 0 32
14:00 1022 30.18 851 25.13 28.9 84.1 15 0.3 32.5
14:05 1022 30.18 851 25.13 29 84.1 14 -0.7 30.7
14:10 1022 30.18 851 25.13 28.8 83.8 14 -0.7 30.8
14:15 1022 30.18 851 25.13 29 84.2 14 -0.5 31.1
14:20 1022 30.18 851 25.13 29.4 84.8 14 -0.7 30.8
14:25 1022 30.18 851 25.13 29.5 85.1 14 -0.5 31.2
14:30 1022 30.18 851 25.13 30.1 86.1 14 -0.2 31.7
14:35 1022 30.18 851 25.13 29.7 85.5 14 -0.5 31.2
14:40 1022 30.18 851 25.13 29.3 84.7 14 -1 30.2
14:45 1022 30.18 851 25.13 29.4 85 14 -0.8 30.6
14:50 1022 30.18 851 25.13 29.8 85.6 14 -0.4 31.3
14:55 1021 30.15 851 25.13 29.3 84.7 14 -0.6 30.9
15:00 1022 30.18 851 25.13 30 86 14 -0.4 31.3
15:05 1021 30.15 851 25.13 30.1 86.1 14 0.1 32.1
15:10 1021 30.15 851 25.13 29.9 85.8 14 0.3 32.5
15:15 1021 30.15 851 25.13 29.9 85.9 14 0.3 32.6
15:20 1021 30.15 851 25.13 30.2 86.4 14 0.1 32.1
15:25 1021 30.15 851 25.13 29.8 85.7 15 0.5 32.8
15:30 1021 30.15 850 25.1 30.7 87.3 14 0.4 32.7
15:35 1021 30.15 850 25.1 30.8 87.4 14 0.2 32.3
15:40 1021 30.15 850 25.1 30.2 86.3 14 0.5 32.8
15:45 1021 30.15 850 25.1 30.2 86.3 14 -0.3 31.5
15:50 1021 30.15 850 25.1 30.2 86.4 14 -0 31.9
15:55 1021 30.15 850 25.1 30.4 86.7 15 0.8 33.4
16:00 1021 30.15 850 25.1 30.3 86.5 13 -0.4 31.3
16:05 1021 30.15 850 25.1 31 87.8 14 0.4 32.7
16:10 1021 30.15 850 25.1 31.8 89.2 13 0.8 33.5
16:15 1021 30.15 850 25.1 31.3 88.4 13 0.2 32.4
16:20 1021 30.15 850 25.1 31.1 88.1 13 0.2 32.4
16:25 1021 30.15 850 25.1 30.5 86.8 14 0.1 32.1
16:30 1021 30.15 850 25.1 30.4 86.8 14 0.5 32.9
16:35 1021 30.15 850 25.1 30.9 87.6 14 0.5 32.8
16:40 1021 30.15 850 25.1 31.8 89.2 14 1.1 33.9
16:45 1021 30.15 850 25.1 31.7 89.1 13 0.7 33.2
16:50 1021 30.15 850 25.1 31.9 89.4 13 0.6 33
16:55 1021 30.15 850 25.1 32.4 90.2 13 0.6 33.1
17:00 1020 30.12 850 25.1 31.9 89.5 13 0.4 32.7
17:05 1020 30.12 850 25.1 30.9 87.7 14 0.4 32.7
17:10 1020 30.12 850 25.1 30.7 87.3 14 0.2 32.4
17:15 1020 30.12 850 25.1 30.4 86.7 14 -0.1 31.8
17:20 1020 30.12 849 25.07 31.4 88.4 12 -0.5 31
17:25 1020 30.12 849 25.07 32.5 90.5 13 0.4 32.7
17:30 1020 30.12 849 25.07 31.5 88.7 13 0.6 33.1
17:35 1020 30.12 849 25.07 31.2 88.1 13 -0.4 31.3
17:40 1020 30.12 849 25.07 31.4 88.5 13 0 32.1
17:45 1020 30.12 849 25.07 31.4 88.6 13 -0.3 31.4
17:50 1020 30.12 849 25.07 31.4 88.5 13 -0.5 31.2
17:55 1020 30.12 849 25.07 32.3 90.1 13 0.5 32.9
18:00 1020 30.12 849 25.07 32.8 91 12 0.1 32.1
18:05 1020 30.12 849 25.07 32.8 91.1 12 0.1 32.2
18:10 1020 30.12 849 25.07 32.1 89.8 13 0.2 32.3
18:15 1020 30.12 849 25.07 32.4 90.3 13 0.3 32.6
18:20 1020 30.12 849 25.07 32.1 89.8 13 0.4 32.7
18:25 1020 30.12 849 25.07 31.8 89.3 14 0.9 33.7
18:30 1020 30.12 849 25.07 32.2 89.9 13 0.7 33.3
18:35 1020 30.12 849 25.07 32.7 90.8 12 0.4 32.7
18:40 1020 30.12 849 25.07 32.4 90.3 12 -0 32
18:45 1020 30.12 849 25.07 32 89.6 13 0 32
18:50 1020 30.12 849 25.07 31.8 89.2 13 0.2 32.4
18:55 1020 30.12 849 25.07 31.3 88.3 14 0.5 32.9
19:00 1020 30.12 849 25.07 31.2 88.1 14 0.4 32.8
19:05 1020 30.12 849 25.07 31.7 89 13 0.7 33.3
19:10 1020 30.12 849 25.07 31.6 88.9 14 0.9 33.7
19:15 1020 30.12 849 25.07 31.2 88.2 14 1.2 34.2
19:20 1020 30.12 849 25.07 31.2 88.2 13 0.2 32.3
19:25 1020 30.12 849 25.07 30.9 87.6 14 0.4 32.8
19:30 1020 30.12 849 25.07 30.5 86.9 14 0.5 32.9
19:35 1020 30.12 849 25.07 30.2 86.4 15 0.8 33.4
19:40 1020 30.12 849 25.07 30.3 86.5 14 0.1 32.3
19:45 1019 30.09 849 25.07 30.2 86.3 14 0.4 32.8
19:50 1020 30.12 849 25.07 30.2 86.4 15 0.6 33.1
19:55 1020 30.12 849 25.07 30.3 86.5 15 1.2 34.1
20:00 1020 30.12 849 25.07 30.1 86.1 15 1 33.7
20:05 1020 30.12 849 25.07 29.9 85.9 14 0.1 32.2
20:10 1020 30.12 849 25.07 30 86 15 0.6 33.2
20:15 1020 30.12 849 25.07 30 85.9 15 1.1 33.9
20:20 1020 30.12 849 25.07 29.8 85.6 15 0.9 33.6
20:25 1020 30.12 849 25.07 29.7 85.5 15 1 33.8
20:30 1020 30.12 849 25.07 29.6 85.2 16 1.8 35.3
20:35 1020 30.12 849 25.07 29.4 84.9 16 1.5 34.7
20:40 1020 30.12 849 25.07 29.3 84.7 17 2.4 36.4
20:45 1020 30.12 849 25.07 29.2 84.6 18 3.2 37.7
20:50 1020 30.12 849 25.07 29 84.2 20 4.1 39.3
20:55 1020 30.12 849 25.07 28.6 83.5 21 4.3 39.8
21:00 1020 30.12 849 25.07 28.2 82.7 23 5.2 41.3
21:05 1020 30.12 849 25.07 27.6 81.6 25 6 42.9
21:10 1020 30.12 849 25.07 27 80.6 26 6.4 43.5
21:15 1020 30.12 849 25.07 26.7 80.1 23 4 39.2
21:20 1020 30.12 849 25.07 26.9 80.3 22 3.4 38.2
21:25 1020 30.12 849 25.07 26.8 80.2 21 3 37.4
21:30 1020 30.12 849 25.07 26.7 80.1 20 2.5 36.5
21:35 1020 30.12 849 25.07 26.6 79.9 21 2.5 36.5
21:40 1020 30.12 849 25.07 26.4 79.4 21 2.5 36.5
21:45 1020 30.12 849 25.07 26 78.9 21 2.4 36.2
21:50 1020 30.12 849 25.07 26 78.8 21 2 35.5
21:55 1020 30.12 849 25.07 25.9 78.7 20 1.6 34.8
22:00 1020 30.12 849 25.07 26.2 79.1 19 1.3 34.4
22:05 1020 30.12 849 25.07 26.2 79.2 19 1.2 34.1
22:10 1020 30.12 849 25.07 26.3 79.3 19 1.1 33.9
22:15 1020 30.12 849 25.07 26.3 79.3 19 1 33.8
22:20 1020 30.12 849 25.07 26.3 79.3 19 0.8 33.4
22:25 1020 30.12 849 25.07 26.2 79.2 19 1.1 33.9
22:30 1020 30.12 849 25.07 26.1 78.9 19 1.1 34
22:35 1020 30.12 849 25.07 26 78.8 19 1.2 34.1
22:40 1020 30.12 849 25.07 25.7 78.3 20 1.5 34.7
22:45 1020 30.12 849 25.07 25.7 78.2 20 1.1 33.9
22:50 1020 30.12 849 25.07 25.7 78.3 19 0.7 33.3
22:55 1020 30.12 849 25.07 25.8 78.4 19 0.8 33.4
23:00 1020 30.12 849 25.07 25.9 78.6 19 0.5 32.9
23:05 1020 30.12 849 25.07 25.8 78.4 19 0.6 33.2
23:10 1020 30.12 849 25.07 25.6 78.1 19 0.7 33.2
23:15 1020 30.12 849 25.07 25.7 78.2 19 0.3 32.5
23:20 1020 30.12 849 25.07 25.7 78.2 19 0.6 33.1
23:25 1020 30.12 849 25.07 25.6 78.1 19 0.7 33.2
23:30 1020 30.12 849 25.07 25.4 77.8 19 0.7 33.2
23:35 1020 30.12 849 25.07 25.3 77.5 20 0.8 33.4
23:40 1020 30.12 849 25.07 25.2 77.4 20 1.1 34
23:45 1020 30.12 849 25.07 25 77 21 1.3 34.4
23:50 1020 30.12 849 25.07 24.9 76.9 21 1.5 34.8
23:55 1020 30.12 849 25.07 24.8 76.7 21 1.6 34.8
24:00 1020 30.12 849 25.07 24.8 76.7 22 1.8 35.3